sensor_id;sensor_type;location;lat;lon;timestamp;pressure;altitude;pressure_sealevel;temperature;humidity
22647;BME280;11490;42.726;23.268;2023-11-19T00:00:29;95207.16;;;4.10;94.28
22647;BME280;11490;42.726;23.268;2023-11-19T00:02:55;95214.59;;;3.93;94.78
22647;BME280;11490;42.726;23.268;2023-11-19T00:05:20;95228.63;;;4.00;94.77
22647;BME280;11490;42.726;23.268;2023-11-19T00:07:46;95231.94;;;4.15;94.92
22647;BME280;11490;42.726;23.268;2023-11-19T00:10:13;95209.97;;;4.02;94.62
22647;BME280;11490;42.726;23.268;2023-11-19T00:12:43;95207.97;;;4.10;94.99
22647;BME280;11490;42.726;23.268;2023-11-19T00:15:09;95206.72;;;4.06;94.34
22647;BME280;11490;42.726;23.268;2023-11-19T00:17:40;95215.91;;;4.17;94.31
22647;BME280;11490;42.726;23.268;2023-11-19T00:20:07;95205.06;;;3.99;94.63
22647;BME280;11490;42.726;23.268;2023-11-19T00:22:33;95215.28;;;4.21;94.08
22647;BME280;11490;42.726;23.268;2023-11-19T00:24:58;95219.34;;;4.17;93.53
22647;BME280;11490;42.726;23.268;2023-11-19T00:27:25;95225.41;;;4.11;94.29
22647;BME280;11490;42.726;23.268;2023-11-19T00:29:50;95223.38;;;4.07;93.70
22647;BME280;11490;42.726;23.268;2023-11-19T00:32:15;95216.44;;;4.06;93.85
22647;BME280;11490;42.726;23.268;2023-11-19T00:34:43;95216.47;;;4.12;93.97
22647;BME280;11490;42.726;23.268;2023-11-19T00:37:09;95219.69;;;4.01;93.94
22647;BME280;11490;42.726;23.268;2023-11-19T00:39:34;95216.06;;;4.09;94.10
22647;BME280;11490;42.726;23.268;2023-11-19T00:42:00;95228.00;;;4.05;94.74
22647;BME280;11490;42.726;23.268;2023-11-19T00:44:25;95235.94;;;4.05;94.74
22647;BME280;11490;42.726;23.268;2023-11-19T00:46:51;95232.31;;;4.12;94.62
22647;BME280;11490;42.726;23.268;2023-11-19T00:49:16;95219.91;;;4.06;94.07
22647;BME280;11490;42.726;23.268;2023-11-19T00:51:41;95216.25;;;4.07;94.70
22647;BME280;11490;42.726;23.268;2023-11-19T00:54:07;95230.63;;;3.98;94.51
22647;BME280;11490;42.726;23.268;2023-11-19T00:56:32;95220.69;;;4.00;94.45
22647;BME280;11490;42.726;23.268;2023-11-19T00:58:57;95224.56;;;4.04;94.72
22647;BME280;11490;42.726;23.268;2023-11-19T01:01:25;95218.06;;;4.00;94.29
22647;BME280;11490;42.726;23.268;2023-11-19T01:03:50;95221.72;;;3.99;94.53
22647;BME280;11490;42.726;23.268;2023-11-19T01:06:26;95209.53;;;3.98;94.46
22647;BME280;11490;42.726;23.268;2023-11-19T01:08:52;95220.06;;;3.92;94.76
22647;BME280;11490;42.726;23.268;2023-11-19T01:11:21;95215.81;;;3.97;95.48
22647;BME280;11490;42.726;23.268;2023-11-19T01:13:47;95224.97;;;4.01;94.97
22647;BME280;11490;42.726;23.268;2023-11-19T01:16:13;95227.97;;;3.92;94.05
22647;BME280;11490;42.726;23.268;2023-11-19T01:18:38;95222.88;;;3.90;94.54
22647;BME280;11490;42.726;23.268;2023-11-19T01:21:04;95230.25;;;4.01;94.65
22647;BME280;11490;42.726;23.268;2023-11-19T01:23:30;95236.38;;;4.08;94.54
22647;BME280;11490;42.726;23.268;2023-11-19T01:25:55;95231.88;;;4.02;93.79
22647;BME280;11490;42.726;23.268;2023-11-19T01:28:21;95239.81;;;4.02;93.84
22647;BME280;11490;42.726;23.268;2023-11-19T01:30:46;95233.63;;;3.88;94.34
22647;BME280;11490;42.726;23.268;2023-11-19T01:33:11;95240.81;;;4.01;94.47
22647;BME280;11490;42.726;23.268;2023-11-19T01:35:37;95274.09;;;4.02;93.69
22647;BME280;11490;42.726;23.268;2023-11-19T01:38:02;95253.00;;;4.02;93.49
22647;BME280;11490;42.726;23.268;2023-11-19T01:40:27;95255.50;;;3.82;93.67
22647;BME280;11490;42.726;23.268;2023-11-19T01:42:53;95256.16;;;3.91;93.94
22647;BME280;11490;42.726;23.268;2023-11-19T01:45:38;95265.59;;;4.13;93.40
22647;BME280;11490;42.726;23.268;2023-11-19T01:48:05;95263.88;;;3.86;93.73
22647;BME280;11490;42.726;23.268;2023-11-19T01:50:31;95257.78;;;3.85;94.53
22647;BME280;11490;42.726;23.268;2023-11-19T01:52:58;95257.69;;;3.72;93.46
22647;BME280;11490;42.726;23.268;2023-11-19T01:55:25;95269.84;;;3.73;93.46
22647;BME280;11490;42.726;23.268;2023-11-19T01:57:54;95259.13;;;3.75;92.86
22647;BME280;11490;42.726;23.268;2023-11-19T02:00:21;95268.31;;;3.85;93.56
22647;BME280;11490;42.726;23.268;2023-11-19T02:02:47;95278.09;;;3.92;92.60
22647;BME280;11490;42.726;23.268;2023-11-19T02:05:13;95259.28;;;3.67;92.90
22647;BME280;11490;42.726;23.268;2023-11-19T02:07:39;95255.44;;;3.69;93.31
22647;BME280;11490;42.726;23.268;2023-11-19T02:10:05;95249.13;;;3.64;92.83
22647;BME280;11490;42.726;23.268;2023-11-19T02:12:31;95249.41;;;3.82;93.32
22647;BME280;11490;42.726;23.268;2023-11-19T02:15:01;95251.59;;;3.72;93.48
22647;BME280;11490;42.726;23.268;2023-11-19T02:17:31;95241.13;;;3.85;92.82
22647;BME280;11490;42.726;23.268;2023-11-19T02:19:57;95247.50;;;3.63;93.33
22647;BME280;11490;42.726;23.268;2023-11-19T02:22:23;95246.50;;;3.64;93.11
22647;BME280;11490;42.726;23.268;2023-11-19T02:24:51;95256.00;;;3.65;93.53
22647;BME280;11490;42.726;23.268;2023-11-19T02:29:50;95244.47;;;3.66;93.15
22647;BME280;11490;42.726;23.268;2023-11-19T02:32:15;95241.75;;;3.53;93.69
22647;BME280;11490;42.726;23.268;2023-11-19T02:34:41;95222.28;;;3.54;93.85
22647;BME280;11490;42.726;23.268;2023-11-19T02:37:06;95214.19;;;3.55;94.29
22647;BME280;11490;42.726;23.268;2023-11-19T02:39:31;95217.38;;;3.51;93.17
22647;BME280;11490;42.726;23.268;2023-11-19T02:41:57;95232.19;;;3.52;93.98
22647;BME280;11490;42.726;23.268;2023-11-19T02:44:22;95226.72;;;3.46;95.24
22647;BME280;11490;42.726;23.268;2023-11-19T02:46:48;95243.31;;;3.40;94.71
22647;BME280;11490;42.726;23.268;2023-11-19T02:49:14;95246.50;;;3.36;95.52
22647;BME280;11490;42.726;23.268;2023-11-19T02:51:40;95249.22;;;3.21;94.83
22647;BME280;11490;42.726;23.268;2023-11-19T02:54:06;95249.75;;;3.38;94.64
22647;BME280;11490;42.726;23.268;2023-11-19T02:56:31;95228.16;;;3.21;95.09
22647;BME280;11490;42.726;23.268;2023-11-19T02:59:01;95228.22;;;3.34;95.23
22647;BME280;11490;42.726;23.268;2023-11-19T03:01:37;95251.44;;;3.45;95.38
22647;BME280;11490;42.726;23.268;2023-11-19T03:04:02;95238.34;;;3.31;94.55
22647;BME280;11490;42.726;23.268;2023-11-19T03:06:29;95239.53;;;3.28;95.32
22647;BME280;11490;42.726;23.268;2023-11-19T03:08:54;95241.03;;;3.37;95.34
22647;BME280;11490;42.726;23.268;2023-11-19T03:11:20;95255.44;;;3.41;95.30
22647;BME280;11490;42.726;23.268;2023-11-19T03:13:46;95264.47;;;3.54;94.11
22647;BME280;11490;42.726;23.268;2023-11-19T03:16:12;95263.56;;;3.40;94.34
22647;BME280;11490;42.726;23.268;2023-11-19T03:18:37;95263.22;;;3.49;94.19
22647;BME280;11490;42.726;23.268;2023-11-19T03:21:05;95268.97;;;3.60;94.15
22647;BME280;11490;42.726;23.268;2023-11-19T03:23:30;95261.69;;;3.62;93.94
22647;BME280;11490;42.726;23.268;2023-11-19T03:25:56;95263.31;;;3.63;93.43
22647;BME280;11490;42.726;23.268;2023-11-19T03:28:22;95285.66;;;3.67;93.25
22647;BME280;11490;42.726;23.268;2023-11-19T03:30:47;95279.56;;;3.66;92.97
22647;BME280;11490;42.726;23.268;2023-11-19T03:33:13;95263.78;;;3.73;93.04
22647;BME280;11490;42.726;23.268;2023-11-19T03:35:38;95269.41;;;3.63;93.08
22647;BME280;11490;42.726;23.268;2023-11-19T03:38:06;95283.63;;;3.69;93.32
22647;BME280;11490;42.726;23.268;2023-11-19T03:40:31;95286.63;;;3.59;93.65
22647;BME280;11490;42.726;23.268;2023-11-19T03:42:57;95279.66;;;3.52;94.38
22647;BME280;11490;42.726;23.268;2023-11-19T03:45:23;95291.31;;;3.64;93.45
22647;BME280;11490;42.726;23.268;2023-11-19T03:47:50;95310.00;;;3.69;93.90
22647;BME280;11490;42.726;23.268;2023-11-19T03:50:15;95321.34;;;3.63;94.82
22647;BME280;11490;42.726;23.268;2023-11-19T03:52:41;95324.84;;;3.70;94.53
22647;BME280;11490;42.726;23.268;2023-11-19T03:55:07;95315.25;;;3.62;94.27
22647;BME280;11490;42.726;23.268;2023-11-19T03:57:34;95302.91;;;3.69;94.43
22647;BME280;11490;42.726;23.268;2023-11-19T03:59:59;95311.72;;;3.83;93.22
22647;BME280;11490;42.726;23.268;2023-11-19T04:02:25;95312.91;;;3.80;93.29
22647;BME280;11490;42.726;23.268;2023-11-19T04:04:53;95305.25;;;3.58;93.32
22647;BME280;11490;42.726;23.268;2023-11-19T04:07:19;95305.56;;;3.69;93.73
22647;BME280;11490;42.726;23.268;2023-11-19T04:09:45;95310.00;;;3.69;92.59
22647;BME280;11490;42.726;23.268;2023-11-19T04:12:12;95324.56;;;3.65;93.44
22647;BME280;11490;42.726;23.268;2023-11-19T04:14:37;95316.94;;;3.70;93.55
22647;BME280;11490;42.726;23.268;2023-11-19T04:17:02;95314.28;;;3.70;93.48
22647;BME280;11490;42.726;23.268;2023-11-19T04:19:28;95313.66;;;3.68;93.26
22647;BME280;11490;42.726;23.268;2023-11-19T04:21:53;95315.66;;;3.66;93.14
22647;BME280;11490;42.726;23.268;2023-11-19T04:24:19;95300.53;;;3.46;93.97
22647;BME280;11490;42.726;23.268;2023-11-19T04:26:45;95313.66;;;3.68;93.08
22647;BME280;11490;42.726;23.268;2023-11-19T04:29:15;95314.28;;;3.70;93.96
22647;BME280;11490;42.726;23.268;2023-11-19T04:31:42;95313.03;;;3.66;92.97
22647;BME280;11490;42.726;23.268;2023-11-19T04:34:08;95332.75;;;3.70;93.37
22647;BME280;11490;42.726;23.268;2023-11-19T04:36:33;95322.16;;;3.63;93.22
22647;BME280;11490;42.726;23.268;2023-11-19T04:39:00;95331.47;;;3.66;93.73
22647;BME280;11490;42.726;23.268;2023-11-19T04:41:26;95334.66;;;3.55;93.62
22647;BME280;11490;42.726;23.268;2023-11-19T04:43:53;95324.56;;;3.65;93.57
22647;BME280;11490;42.726;23.268;2023-11-19T04:46:19;95318.06;;;3.61;93.39
22647;BME280;11490;42.726;23.268;2023-11-19T04:48:44;95324.44;;;3.45;93.51
22647;BME280;11490;42.726;23.268;2023-11-19T04:51:10;95320.84;;;3.53;93.87
22647;BME280;11490;42.726;23.268;2023-11-19T04:53:35;95321.13;;;3.64;93.34
22647;BME280;11490;42.726;23.268;2023-11-19T04:56:01;95301.38;;;3.54;92.46
22647;BME280;11490;42.726;23.268;2023-11-19T04:58:45;95333.16;;;3.73;93.08
22647;BME280;11490;42.726;23.268;2023-11-19T05:01:13;95329.75;;;3.52;93.42
22647;BME280;11490;42.726;23.268;2023-11-19T05:03:41;95332.31;;;3.66;93.10
22647;BME280;11490;42.726;23.268;2023-11-19T05:06:07;95348.84;;;3.54;92.61
22647;BME280;11490;42.726;23.268;2023-11-19T05:08:32;95368.81;;;3.63;92.65
22647;BME280;11490;42.726;23.268;2023-11-19T05:10:58;95369.22;;;3.66;92.90
22647;BME280;11490;42.726;23.268;2023-11-19T05:13:24;95360.25;;;3.61;92.46
22647;BME280;11490;42.726;23.268;2023-11-19T05:15:49;95360.25;;;3.61;92.48
22647;BME280;11490;42.726;23.268;2023-11-19T05:18:15;95346.44;;;3.59;93.11
22647;BME280;11490;42.726;23.268;2023-11-19T05:20:40;95350.91;;;3.58;93.77
22647;BME280;11490;42.726;23.268;2023-11-19T05:23:06;95359.06;;;3.63;93.78
22647;BME280;11490;42.726;23.268;2023-11-19T05:25:33;95345.94;;;3.48;93.04
22647;BME280;11490;42.726;23.268;2023-11-19T05:27:58;95330.13;;;3.48;93.09
22647;BME280;11490;42.726;23.268;2023-11-19T05:30:24;95336.94;;;3.36;94.06
22647;BME280;11490;42.726;23.268;2023-11-19T05:32:49;95360.41;;;3.53;93.41
22647;BME280;11490;42.726;23.268;2023-11-19T05:35:15;95361.34;;;3.45;93.75
22647;BME280;11490;42.726;23.268;2023-11-19T05:37:41;95352.00;;;3.42;93.11
22647;BME280;11490;42.726;23.268;2023-11-19T05:40:07;95364.66;;;3.54;93.04
22647;BME280;11490;42.726;23.268;2023-11-19T05:42:37;95354.63;;;3.64;92.44
22647;BME280;11490;42.726;23.268;2023-11-19T05:45:03;95370.69;;;3.69;93.09
22647;BME280;11490;42.726;23.268;2023-11-19T05:47:31;95367.59;;;3.65;93.13
22647;BME280;11490;42.726;23.268;2023-11-19T05:49:59;95364.28;;;3.57;93.45
22647;BME280;11490;42.726;23.268;2023-11-19T05:52:24;95361.03;;;3.55;93.70
22647;BME280;11490;42.726;23.268;2023-11-19T05:54:59;95367.81;;;3.64;93.21
22647;BME280;11490;42.726;23.268;2023-11-19T05:57:27;95352.97;;;3.63;92.72
22647;BME280;11490;42.726;23.268;2023-11-19T05:59:54;95395.81;;;3.43;93.02
22647;BME280;11490;42.726;23.268;2023-11-19T06:02:20;95390.50;;;3.65;92.98
22647;BME280;11490;42.726;23.268;2023-11-19T06:04:45;95385.00;;;3.60;92.94
22647;BME280;11490;42.726;23.268;2023-11-19T06:07:13;95407.06;;;3.80;93.99
22647;BME280;11490;42.726;23.268;2023-11-19T06:09:39;95397.59;;;3.64;94.47
22647;BME280;11490;42.726;23.268;2023-11-19T06:12:05;95400.31;;;3.49;93.56
22647;BME280;11490;42.726;23.268;2023-11-19T06:14:32;95388.63;;;3.59;93.77
22647;BME280;11490;42.726;23.268;2023-11-19T06:16:58;95398.06;;;3.68;94.34
22647;BME280;11490;42.726;23.268;2023-11-19T06:19:23;95390.53;;;3.43;93.73
22647;BME280;11490;42.726;23.268;2023-11-19T06:21:50;95392.78;;;3.68;94.02
22647;BME280;11490;42.726;23.268;2023-11-19T06:24:16;95388.59;;;3.52;93.52
22647;BME280;11490;42.726;23.268;2023-11-19T06:26:44;95397.56;;;3.58;93.16
22647;BME280;11490;42.726;23.268;2023-11-19T06:29:16;95395.44;;;3.46;93.88
22647;BME280;11490;42.726;23.268;2023-11-19T06:31:45;95420.16;;;3.45;93.02
22647;BME280;11490;42.726;23.268;2023-11-19T06:34:13;95392.06;;;3.31;93.82
22647;BME280;11490;42.726;23.268;2023-11-19T06:36:38;95399.44;;;3.42;94.20
22647;BME280;11490;42.726;23.268;2023-11-19T06:39:04;95420.53;;;3.42;92.64
22647;BME280;11490;42.726;23.268;2023-11-19T06:41:31;95399.59;;;3.56;93.43
22647;BME280;11490;42.726;23.268;2023-11-19T06:43:56;95413.38;;;3.58;92.35
22647;BME280;11490;42.726;23.268;2023-11-19T06:46:22;95409.50;;;3.54;93.44
22647;BME280;11490;42.726;23.268;2023-11-19T06:48:47;95412.63;;;3.64;92.26
22647;BME280;11490;42.726;23.268;2023-11-19T06:51:16;95397.50;;;3.51;92.08
22647;BME280;11490;42.726;23.268;2023-11-19T06:53:42;95405.03;;;3.54;91.85
22647;BME280;11490;42.726;23.268;2023-11-19T06:56:25;95415.81;;;3.59;91.50
22647;BME280;11490;42.726;23.268;2023-11-19T06:58:54;95408.63;;;3.46;91.99
22647;BME280;11490;42.726;23.268;2023-11-19T07:01:19;95415.13;;;3.51;92.31
22647;BME280;11490;42.726;23.268;2023-11-19T07:03:46;95409.69;;;3.52;92.00
22647;BME280;11490;42.726;23.268;2023-11-19T07:06:11;95408.34;;;3.41;92.45
22647;BME280;11490;42.726;23.268;2023-11-19T07:08:38;95417.91;;;3.42;91.95
22647;BME280;11490;42.726;23.268;2023-11-19T07:11:04;95426.81;;;3.41;92.62
22647;BME280;11490;42.726;23.268;2023-11-19T07:13:30;95401.25;;;3.21;92.24
22647;BME280;11490;42.726;23.268;2023-11-19T07:16:03;95409.34;;;3.19;92.51
22647;BME280;11490;42.726;23.268;2023-11-19T07:18:29;95414.91;;;3.45;92.76
22647;BME280;11490;42.726;23.268;2023-11-19T07:20:54;95404.59;;;3.51;92.00
22647;BME280;11490;42.726;23.268;2023-11-19T07:23:22;95426.56;;;3.58;91.97
22647;BME280;11490;42.726;23.268;2023-11-19T07:25:48;95421.09;;;3.59;91.72
22647;BME280;11490;42.726;23.268;2023-11-19T07:28:15;95428.19;;;3.59;92.39
22647;BME280;11490;42.726;23.268;2023-11-19T07:30:42;95429.25;;;3.64;91.89
22647;BME280;11490;42.726;23.268;2023-11-19T07:33:07;95435.78;;;3.68;91.18
22647;BME280;11490;42.726;23.268;2023-11-19T07:35:33;95454.84;;;3.64;91.17
22647;BME280;11490;42.726;23.268;2023-11-19T07:37:59;95437.88;;;3.30;90.85
22647;BME280;11490;42.726;23.268;2023-11-19T07:40:24;95442.66;;;3.63;91.22
22647;BME280;11490;42.726;23.268;2023-11-19T07:42:50;95444.13;;;3.51;91.49
22647;BME280;11490;42.726;23.268;2023-11-19T07:45:16;95451.34;;;3.42;90.93
22647;BME280;11490;42.726;23.268;2023-11-19T07:47:42;95425.69;;;3.29;90.68
22647;BME280;11490;42.726;23.268;2023-11-19T07:50:10;95448.66;;;3.57;90.85
22647;BME280;11490;42.726;23.268;2023-11-19T07:52:37;95442.03;;;3.39;90.97
22647;BME280;11490;42.726;23.268;2023-11-19T07:55:02;95443.56;;;3.34;91.58
22647;BME280;11490;42.726;23.268;2023-11-19T07:57:28;95449.81;;;3.47;91.96
22647;BME280;11490;42.726;23.268;2023-11-19T07:59:56;95450.69;;;3.55;90.70
22647;BME280;11490;42.726;23.268;2023-11-19T08:02:26;95432.41;;;3.53;91.17
22647;BME280;11490;42.726;23.268;2023-11-19T08:04:52;95406.00;;;3.46;90.82
22647;BME280;11490;42.726;23.268;2023-11-19T08:07:21;95453.69;;;3.73;90.02
22647;BME280;11490;42.726;23.268;2023-11-19T08:10:04;95427.06;;;3.46;90.14
22647;BME280;11490;42.726;23.268;2023-11-19T08:12:33;95385.81;;;3.18;89.76
22647;BME280;11490;42.726;23.268;2023-11-19T08:15:00;95403.31;;;3.25;89.75
22647;BME280;11490;42.726;23.268;2023-11-19T08:17:26;95393.06;;;3.09;89.71
22647;BME280;11490;42.726;23.268;2023-11-19T08:19:54;95447.00;;;3.34;90.41
22647;BME280;11490;42.726;23.268;2023-11-19T08:22:20;95457.50;;;3.49;90.00
22647;BME280;11490;42.726;23.268;2023-11-19T08:24:53;95420.88;;;3.18;90.06
22647;BME280;11490;42.726;23.268;2023-11-19T08:27:19;95366.81;;;3.01;90.98
22647;BME280;11490;42.726;23.268;2023-11-19T08:29:54;95421.94;;;3.38;89.87
22647;BME280;11490;42.726;23.268;2023-11-19T08:32:28;95401.72;;;3.24;90.13
22647;BME280;11490;42.726;23.268;2023-11-19T08:35:01;95489.25;;;3.77;90.55
22647;BME280;11490;42.726;23.268;2023-11-19T08:37:30;95454.19;;;3.40;89.38
22647;BME280;11490;42.726;23.268;2023-11-19T08:40:01;95476.19;;;3.47;90.06
22647;BME280;11490;42.726;23.268;2023-11-19T08:42:30;95453.81;;;3.43;90.37
22647;BME280;11490;42.726;23.268;2023-11-19T08:44:56;95421.28;;;3.36;90.50
22647;BME280;11490;42.726;23.268;2023-11-19T08:47:30;95378.72;;;2.97;89.78
22647;BME280;11490;42.726;23.268;2023-11-19T08:52:56;95476.06;;;3.56;89.51
22647;BME280;11490;42.726;23.268;2023-11-19T08:55:21;95473.41;;;3.56;89.54
22647;BME280;11490;42.726;23.268;2023-11-19T08:57:47;95504.94;;;3.85;90.77
22647;BME280;11490;42.726;23.268;2023-11-19T09:00:12;95477.75;;;3.84;89.86
22647;BME280;11490;42.726;23.268;2023-11-19T09:02:39;95478.31;;;4.01;88.22
22647;BME280;11490;42.726;23.268;2023-11-19T09:05:05;95488.19;;;4.20;88.57
22647;BME280;11490;42.726;23.268;2023-11-19T09:07:32;95483.63;;;4.08;88.45
22647;BME280;11490;42.726;23.268;2023-11-19T09:09:58;95479.44;;;3.92;87.47
22647;BME280;11490;42.726;23.268;2023-11-19T09:12:23;95451.13;;;4.07;87.99
22647;BME280;11490;42.726;23.268;2023-11-19T09:14:51;95411.09;;;3.76;87.58
22647;BME280;11490;42.726;23.268;2023-11-19T09:17:16;95450.78;;;4.10;86.82
22647;BME280;11490;42.726;23.268;2023-11-19T09:19:43;95410.44;;;3.95;86.30
22647;BME280;11490;42.726;23.268;2023-11-19T09:22:08;95464.69;;;4.25;86.28
22647;BME280;11490;42.726;23.268;2023-11-19T09:24:34;95468.38;;;4.31;86.77
22647;BME280;11490;42.726;23.268;2023-11-19T09:26:59;95481.75;;;4.30;86.53
22647;BME280;11490;42.726;23.268;2023-11-19T09:29:25;95491.94;;;4.33;86.20
22647;BME280;11490;42.726;23.268;2023-11-19T09:31:51;95468.69;;;4.21;86.02
22647;BME280;11490;42.726;23.268;2023-11-19T09:34:16;95467.41;;;4.39;86.00
22647;BME280;11490;42.726;23.268;2023-11-19T09:36:42;95468.91;;;4.48;85.93
22647;BME280;11490;42.726;23.268;2023-11-19T09:39:10;95457.56;;;4.54;84.98
22647;BME280;11490;42.726;23.268;2023-11-19T09:41:35;95442.66;;;4.40;84.13
22647;BME280;11490;42.726;23.268;2023-11-19T09:44:01;95450.56;;;4.40;84.38
22647;BME280;11490;42.726;23.268;2023-11-19T09:46:26;95443.25;;;4.42;84.61
22647;BME280;11490;42.726;23.268;2023-11-19T09:48:53;95431.63;;;4.36;84.71
22647;BME280;11490;42.726;23.268;2023-11-19T09:51:20;95401.16;;;4.34;84.46
22647;BME280;11490;42.726;23.268;2023-11-19T09:53:45;95409.88;;;4.34;84.75
22647;BME280;11490;42.726;23.268;2023-11-19T09:56:12;95403.91;;;4.53;85.30
22647;BME280;11490;42.726;23.268;2023-11-19T09:58:38;95410.66;;;4.56;85.51
22647;BME280;11490;42.726;23.268;2023-11-19T10:01:03;95403.41;;;4.37;84.69
22647;BME280;11490;42.726;23.268;2023-11-19T10:03:39;95414.41;;;4.40;84.73
22647;BME280;11490;42.726;23.268;2023-11-19T10:06:08;95408.28;;;4.33;85.01
22647;BME280;11490;42.726;23.268;2023-11-19T10:08:37;95408.31;;;4.40;85.75
22647;BME280;11490;42.726;23.268;2023-11-19T10:11:05;95400.09;;;4.28;85.33
22647;BME280;11490;42.726;23.268;2023-11-19T10:13:35;95404.19;;;4.31;86.04
22647;BME280;11490;42.726;23.268;2023-11-19T10:16:08;95423.84;;;4.56;86.03
22647;BME280;11490;42.726;23.268;2023-11-19T10:18:34;95435.25;;;4.63;85.78
22647;BME280;11490;42.726;23.268;2023-11-19T10:21:04;95432.59;;;4.56;85.50
22647;BME280;11490;42.726;23.268;2023-11-19T10:23:30;95420.94;;;4.44;85.20
22647;BME280;11490;42.726;23.268;2023-11-19T10:26:02;95426.66;;;4.48;85.76
22647;BME280;11490;42.726;23.268;2023-11-19T10:28:39;95402.72;;;4.56;85.76
22647;BME280;11490;42.726;23.268;2023-11-19T10:31:05;95393.38;;;4.60;85.31
22647;BME280;11490;42.726;23.268;2023-11-19T10:33:30;95401.34;;;4.73;84.86
22647;BME280;11490;42.726;23.268;2023-11-19T10:35:57;95396.34;;;4.91;85.00
22647;BME280;11490;42.726;23.268;2023-11-19T10:38:24;95386.78;;;4.90;83.67
22647;BME280;11490;42.726;23.268;2023-11-19T10:40:50;95393.53;;;4.99;83.74
22647;BME280;11490;42.726;23.268;2023-11-19T10:43:16;95413.94;;;5.19;83.64
22647;BME280;11490;42.726;23.268;2023-11-19T10:45:42;95401.69;;;5.11;81.89
22647;BME280;11490;42.726;23.268;2023-11-19T10:48:08;95409.44;;;5.13;83.21
22647;BME280;11490;42.726;23.268;2023-11-19T10:50:34;95413.94;;;5.19;82.36
22647;BME280;11490;42.726;23.268;2023-11-19T10:53:01;95413.09;;;5.12;82.51
22647;BME280;11490;42.726;23.268;2023-11-19T10:55:29;95403.72;;;5.02;82.70
22647;BME280;11490;42.726;23.268;2023-11-19T10:58:03;95414.91;;;5.04;82.81
22647;BME280;11490;42.726;23.268;2023-11-19T11:00:41;95407.28;;;4.82;83.43
22647;BME280;11490;42.726;23.268;2023-11-19T11:03:11;95406.13;;;4.97;83.17
22647;BME280;11490;42.726;23.268;2023-11-19T11:05:40;95382.59;;;5.02;83.50
22647;BME280;11490;42.726;23.268;2023-11-19T11:08:06;95363.84;;;5.04;82.64
22647;BME280;11490;42.726;23.268;2023-11-19T11:10:36;95369.19;;;5.11;83.50
22647;BME280;11490;42.726;23.268;2023-11-19T11:13:05;95374.06;;;5.14;83.13
22647;BME280;11490;42.726;23.268;2023-11-19T11:15:31;95366.75;;;5.09;83.19
22647;BME280;11490;42.726;23.268;2023-11-19T11:18:01;95366.31;;;5.12;82.92
22647;BME280;11490;42.726;23.268;2023-11-19T11:20:31;95348.03;;;5.11;82.61
22647;BME280;11490;42.726;23.268;2023-11-19T11:32:00;95367.09;;;4.99;83.53
22647;BME280;11490;42.726;23.268;2023-11-19T11:35:33;95368.38;;;5.10;82.27
22647;BME280;11490;42.726;23.268;2023-11-19T11:40:02;95349.06;;;5.10;83.00
22647;BME280;11490;42.726;23.268;2023-11-19T11:42:36;95341.97;;;5.30;82.89
22647;BME280;11490;42.726;23.268;2023-11-19T11:45:09;95346.03;;;5.39;82.18
22647;BME280;11490;42.726;23.268;2023-11-19T11:50:18;95344.44;;;5.64;80.93
22647;BME280;11490;42.726;23.268;2023-11-19T11:55:37;95343.19;;;5.87;78.67
22647;BME280;11490;42.726;23.268;2023-11-19T11:58:35;95348.50;;;5.80;79.14
22647;BME280;11490;42.726;23.268;2023-11-19T12:01:04;95350.16;;;5.94;79.67
22647;BME280;11490;42.726;23.268;2023-11-19T12:03:33;95342.22;;;5.94;79.33
22647;BME280;11490;42.726;23.268;2023-11-19T12:05:58;95323.25;;;5.77;79.07
22647;BME280;11490;42.726;23.268;2023-11-19T12:08:26;95327.09;;;5.81;80.14
22647;BME280;11490;42.726;23.268;2023-11-19T12:10:54;95316.72;;;5.73;80.10
22647;BME280;11490;42.726;23.268;2023-11-19T12:13:20;95315.53;;;5.69;79.77
22647;BME280;11490;42.726;23.268;2023-11-19T12:18:24;95330.19;;;5.78;80.28
22647;BME280;11490;42.726;23.268;2023-11-19T12:20:50;95315.53;;;5.89;80.20
22647;BME280;11490;42.726;23.268;2023-11-19T12:23:15;95306.97;;;5.80;79.46
22647;BME280;11490;42.726;23.268;2023-11-19T12:25:41;95309.00;;;5.78;80.57
22647;BME280;11490;42.726;23.268;2023-11-19T12:28:12;95305.75;;;5.90;79.65
22647;BME280;11490;42.726;23.268;2023-11-19T12:30:38;95306.16;;;6.00;79.47
22647;BME280;11490;42.726;23.268;2023-11-19T12:33:11;95304.50;;;5.99;79.62
22647;BME280;11490;42.726;23.268;2023-11-19T12:35:44;95294.34;;;5.96;79.81
22647;BME280;11490;42.726;23.268;2023-11-19T12:38:24;95286.00;;;5.92;79.54
22647;BME280;11490;42.726;23.268;2023-11-19T12:41:08;95287.44;;;5.95;79.26
22647;BME280;11490;42.726;23.268;2023-11-19T12:43:35;95289.47;;;5.93;79.19
22647;BME280;11490;42.726;23.268;2023-11-19T12:46:23;95286.81;;;5.79;80.42
22647;BME280;11490;42.726;23.268;2023-11-19T12:48:49;95277.66;;;5.75;80.33
22647;BME280;11490;42.726;23.268;2023-11-19T12:51:15;95262.78;;;5.74;80.02
22647;BME280;11490;42.726;23.268;2023-11-19T12:53:51;95283.75;;;5.76;80.48
22647;BME280;11490;42.726;23.268;2023-11-19T12:56:20;95274.41;;;5.67;79.79
22647;BME280;11490;42.726;23.268;2023-11-19T12:58:47;95285.81;;;5.80;80.54
22647;BME280;11490;42.726;23.268;2023-11-19T13:01:18;95252.84;;;5.50;80.65
22647;BME280;11490;42.726;23.268;2023-11-19T13:03:45;95262.19;;;5.72;80.43
22647;BME280;11490;42.726;23.268;2023-11-19T13:06:12;95267.06;;;5.69;80.58
22647;BME280;11490;42.726;23.268;2023-11-19T13:08:47;95267.06;;;5.75;79.49
22647;BME280;11490;42.726;23.268;2023-11-19T13:11:32;95266.25;;;5.75;79.69
22647;BME280;11490;42.726;23.268;2023-11-19T13:14:00;95265.44;;;5.68;79.42
22647;BME280;11490;42.726;23.268;2023-11-19T13:16:27;95257.28;;;5.82;79.76
22647;BME280;11490;42.726;23.268;2023-11-19T13:18:53;95237.94;;;5.75;80.94
22647;BME280;11490;42.726;23.268;2023-11-19T13:21:19;95258.09;;;5.90;80.27
22647;BME280;11490;42.726;23.268;2023-11-19T13:23:45;95200.75;;;5.57;79.68
22647;BME280;11490;42.726;23.268;2023-11-19T13:26:11;95199.31;;;5.61;79.67